sensor_id;sensor_type;location;lat;lon;timestamp;P1;durP1;ratioP1;P2;durP2;ratioP2
78406;SDS011;67692;51.074;-1.790;2024-01-06T00:00:33;3.55;;;1.00;;
78406;SDS011;67692;51.074;-1.790;2024-01-06T00:03:00;3.78;;;1.10;;
78406;SDS011;67692;51.074;-1.790;2024-01-06T00:05:26;2.75;;;0.93;;
78406;SDS011;67692;51.074;-1.790;2024-01-06T00:07:53;2.28;;;0.75;;
78406;SDS011;67692;51.074;-1.790;2024-01-06T00:10:20;2.70;;;0.80;;
78406;SDS011;67692;51.074;-1.790;2024-01-06T00:12:48;2.33;;;0.80;;
78406;SDS011;67692;51.074;-1.790;2024-01-06T00:15:14;5.95;;;1.13;;
78406;SDS011;67692;51.074;-1.790;2024-01-06T00:17:41;3.15;;;1.30;;
78406;SDS011;67692;51.074;-1.790;2024-01-06T00:20:08;5.50;;;1.33;;
78406;SDS011;67692;51.074;-1.790;2024-01-06T00:22:35;2.10;;;0.95;;
78406;SDS011;67692;51.074;-1.790;2024-01-06T00:25:02;2.40;;;1.00;;
78406;SDS011;67692;51.074;-1.790;2024-01-06T00:27:29;4.30;;;1.02;;
78406;SDS011;67692;51.074;-1.790;2024-01-06T00:29:57;1.80;;;0.88;;
78406;SDS011;67692;51.074;-1.790;2024-01-06T00:32:24;4.15;;;1.20;;
78406;SDS011;67692;51.074;-1.790;2024-01-06T00:34:50;2.72;;;1.52;;
78406;SDS011;67692;51.074;-1.790;2024-01-06T00:37:17;2.53;;;0.95;;
78406;SDS011;67692;51.074;-1.790;2024-01-06T00:39:43;2.53;;;1.10;;
78406;SDS011;67692;51.074;-1.790;2024-01-06T00:42:10;3.85;;;1.10;;
78406;SDS011;67692;51.074;-1.790;2024-01-06T00:44:37;3.53;;;0.90;;
78406;SDS011;67692;51.074;-1.790;2024-01-06T00:47:05;4.50;;;1.27;;
78406;SDS011;67692;51.074;-1.790;2024-01-06T00:49:32;2.83;;;1.10;;
78406;SDS011;67692;51.074;-1.790;2024-01-06T00:51:59;3.25;;;1.20;;
78406;SDS011;67692;51.074;-1.790;2024-01-06T00:54:25;3.22;;;1.27;;
78406;SDS011;67692;51.074;-1.790;2024-01-06T00:56:52;2.85;;;0.90;;
78406;SDS011;67692;51.074;-1.790;2024-01-06T00:59:19;3.53;;;1.45;;
78406;SDS011;67692;51.074;-1.790;2024-01-06T01:01:45;3.30;;;1.33;;
78406;SDS011;67692;51.074;-1.790;2024-01-06T01:04:13;4.68;;;1.10;;
78406;SDS011;67692;51.074;-1.790;2024-01-06T01:06:40;3.45;;;1.23;;
78406;SDS011;67692;51.074;-1.790;2024-01-06T01:09:06;6.05;;;1.73;;
78406;SDS011;67692;51.074;-1.790;2024-01-06T01:11:35;4.95;;;1.92;;
78406;SDS011;67692;51.074;-1.790;2024-01-06T01:14:02;3.33;;;1.30;;
78406;SDS011;67692;51.074;-1.790;2024-01-06T01:16:28;4.30;;;1.17;;
78406;SDS011;67692;51.074;-1.790;2024-01-06T01:18:57;4.65;;;1.60;;
78406;SDS011;67692;51.074;-1.790;2024-01-06T01:21:25;2.65;;;0.90;;
78406;SDS011;67692;51.074;-1.790;2024-01-06T01:23:52;4.28;;;1.15;;
78406;SDS011;67692;51.074;-1.790;2024-01-06T01:26:18;3.25;;;1.00;;
78406;SDS011;67692;51.074;-1.790;2024-01-06T01:28:45;2.03;;;1.10;;
78406;SDS011;67692;51.074;-1.790;2024-01-06T01:31:11;3.50;;;1.10;;
78406;SDS011;67692;51.074;-1.790;2024-01-06T01:33:38;2.35;;;1.10;;
78406;SDS011;67692;51.074;-1.790;2024-01-06T01:36:05;3.13;;;1.10;;
78406;SDS011;67692;51.074;-1.790;2024-01-06T01:38:33;3.05;;;1.05;;
78406;SDS011;67692;51.074;-1.790;2024-01-06T01:41:00;4.75;;;1.80;;
78406;SDS011;67692;51.074;-1.790;2024-01-06T01:43:27;2.45;;;1.00;;
78406;SDS011;67692;51.074;-1.790;2024-01-06T01:45:54;3.90;;;1.25;;
78406;SDS011;67692;51.074;-1.790;2024-01-06T01:48:22;2.13;;;0.98;;
78406;SDS011;67692;51.074;-1.790;2024-01-06T01:50:51;2.50;;;1.17;;
78406;SDS011;67692;51.074;-1.790;2024-01-06T01:53:18;3.60;;;0.80;;
78406;SDS011;67692;51.074;-1.790;2024-01-06T01:55:48;3.15;;;1.02;;
78406;SDS011;67692;51.074;-1.790;2024-01-06T01:58:16;3.75;;;0.90;;
78406;SDS011;67692;51.074;-1.790;2024-01-06T02:00:42;3.30;;;1.23;;
78406;SDS011;67692;51.074;-1.790;2024-01-06T02:03:09;5.00;;;0.95;;
78406;SDS011;67692;51.074;-1.790;2024-01-06T02:05:39;6.57;;;1.40;;
78406;SDS011;67692;51.074;-1.790;2024-01-06T02:08:05;3.30;;;0.90;;
78406;SDS011;67692;51.074;-1.790;2024-01-06T02:10:32;1.33;;;0.70;;
78406;SDS011;67692;51.074;-1.790;2024-01-06T02:13:08;2.05;;;0.73;;
78406;SDS011;67692;51.074;-1.790;2024-01-06T02:15:35;4.32;;;0.90;;
78406;SDS011;67692;51.074;-1.790;2024-01-06T02:18:02;5.40;;;1.55;;
78406;SDS011;67692;51.074;-1.790;2024-01-06T02:20:30;3.58;;;0.65;;
78406;SDS011;67692;51.074;-1.790;2024-01-06T02:22:58;2.25;;;0.70;;
78406;SDS011;67692;51.074;-1.790;2024-01-06T02:25:25;2.10;;;0.82;;
78406;SDS011;67692;51.074;-1.790;2024-01-06T02:27:52;2.58;;;0.95;;
78406;SDS011;67692;51.074;-1.790;2024-01-06T02:30:19;3.20;;;0.80;;
78406;SDS011;67692;51.074;-1.790;2024-01-06T02:32:46;1.55;;;0.60;;
78406;SDS011;67692;51.074;-1.790;2024-01-06T02:35:12;2.85;;;1.05;;
78406;SDS011;67692;51.074;-1.790;2024-01-06T02:37:39;2.50;;;0.82;;
78406;SDS011;67692;51.074;-1.790;2024-01-06T02:40:08;2.28;;;0.60;;
78406;SDS011;67692;51.074;-1.790;2024-01-06T02:42:35;3.38;;;0.77;;
78406;SDS011;67692;51.074;-1.790;2024-01-06T02:45:02;2.35;;;0.85;;
78406;SDS011;67692;51.074;-1.790;2024-01-06T02:47:29;2.08;;;0.73;;
78406;SDS011;67692;51.074;-1.790;2024-01-06T02:49:56;5.90;;;0.75;;
78406;SDS011;67692;51.074;-1.790;2024-01-06T02:52:22;1.45;;;0.60;;
78406;SDS011;67692;51.074;-1.790;2024-01-06T02:54:49;0.47;;;0.43;;
78406;SDS011;67692;51.074;-1.790;2024-01-06T02:57:17;3.67;;;0.90;;
78406;SDS011;67692;51.074;-1.790;2024-01-06T02:59:44;3.42;;;0.88;;
78406;SDS011;67692;51.074;-1.790;2024-01-06T03:02:11;3.53;;;0.80;;
78406;SDS011;67692;51.074;-1.790;2024-01-06T03:04:37;1.88;;;0.73;;
78406;SDS011;67692;51.074;-1.790;2024-01-06T03:07:04;2.33;;;0.90;;
78406;SDS011;67692;51.074;-1.790;2024-01-06T03:09:31;2.63;;;1.02;;
78406;SDS011;67692;51.074;-1.790;2024-01-06T03:11:56;4.50;;;0.70;;
78406;SDS011;67692;51.074;-1.790;2024-01-06T03:14:24;5.18;;;1.00;;
78406;SDS011;67692;51.074;-1.790;2024-01-06T03:16:51;3.55;;;0.82;;
78406;SDS011;67692;51.074;-1.790;2024-01-06T03:19:18;2.80;;;0.90;;
78406;SDS011;67692;51.074;-1.790;2024-01-06T03:21:44;4.45;;;0.68;;
78406;SDS011;67692;51.074;-1.790;2024-01-06T03:24:11;2.72;;;0.63;;
78406;SDS011;67692;51.074;-1.790;2024-01-06T03:26:38;2.03;;;0.52;;
78406;SDS011;67692;51.074;-1.790;2024-01-06T03:29:04;1.08;;;0.63;;
78406;SDS011;67692;51.074;-1.790;2024-01-06T03:31:32;4.90;;;0.90;;
78406;SDS011;67692;51.074;-1.790;2024-01-06T03:33:59;1.27;;;0.57;;
78406;SDS011;67692;51.074;-1.790;2024-01-06T03:36:25;2.55;;;0.70;;
78406;SDS011;67692;51.074;-1.790;2024-01-06T03:38:52;4.18;;;1.00;;
78406;SDS011;67692;51.074;-1.790;2024-01-06T03:41:19;3.78;;;0.90;;
78406;SDS011;67692;51.074;-1.790;2024-01-06T03:43:45;2.00;;;0.55;;
78406;SDS011;67692;51.074;-1.790;2024-01-06T03:46:12;3.58;;;0.80;;
78406;SDS011;67692;51.074;-1.790;2024-01-06T03:48:40;1.90;;;0.63;;
78406;SDS011;67692;51.074;-1.790;2024-01-06T03:51:07;2.80;;;0.77;;
78406;SDS011;67692;51.074;-1.790;2024-01-06T03:53:33;8.77;;;0.95;;
78406;SDS011;67692;51.074;-1.790;2024-01-06T03:56:00;6.15;;;0.90;;
78406;SDS011;67692;51.074;-1.790;2024-01-06T03:58:27;3.55;;;0.68;;
78406;SDS011;67692;51.074;-1.790;2024-01-06T04:00:53;4.18;;;0.85;;
78406;SDS011;67692;51.074;-1.790;2024-01-06T04:03:20;2.42;;;0.95;;
78406;SDS011;67692;51.074;-1.790;2024-01-06T04:05:48;4.88;;;0.80;;
78406;SDS011;67692;51.074;-1.790;2024-01-06T04:08:15;3.83;;;0.90;;
78406;SDS011;67692;51.074;-1.790;2024-01-06T04:10:41;4.05;;;0.47;;
78406;SDS011;67692;51.074;-1.790;2024-01-06T04:13:08;2.67;;;0.65;;
78406;SDS011;67692;51.074;-1.790;2024-01-06T04:15:35;8.18;;;1.08;;
78406;SDS011;67692;51.074;-1.790;2024-01-06T04:18:02;4.03;;;0.93;;
78406;SDS011;67692;51.074;-1.790;2024-01-06T04:20:30;3.45;;;0.63;;
78406;SDS011;67692;51.074;-1.790;2024-01-06T04:22:58;4.82;;;0.70;;
78406;SDS011;67692;51.074;-1.790;2024-01-06T04:25:25;2.55;;;0.60;;
78406;SDS011;67692;51.074;-1.790;2024-01-06T04:27:52;9.43;;;1.65;;
78406;SDS011;67692;51.074;-1.790;2024-01-06T04:30:18;2.40;;;0.60;;
78406;SDS011;67692;51.074;-1.790;2024-01-06T04:32:45;5.03;;;0.70;;
78406;SDS011;67692;51.074;-1.790;2024-01-06T04:35:13;2.53;;;0.40;;
78406;SDS011;67692;51.074;-1.790;2024-01-06T04:37:40;2.65;;;0.68;;
78406;SDS011;67692;51.074;-1.790;2024-01-06T04:40:09;3.45;;;0.95;;
78406;SDS011;67692;51.074;-1.790;2024-01-06T04:42:36;2.95;;;0.60;;
78406;SDS011;67692;51.074;-1.790;2024-01-06T04:45:03;3.08;;;0.50;;
78406;SDS011;67692;51.074;-1.790;2024-01-06T04:47:30;1.65;;;0.60;;
78406;SDS011;67692;51.074;-1.790;2024-01-06T04:49:57;3.35;;;0.65;;
78406;SDS011;67692;51.074;-1.790;2024-01-06T04:52:24;3.95;;;0.77;;
78406;SDS011;67692;51.074;-1.790;2024-01-06T04:54:50;8.27;;;0.95;;
78406;SDS011;67692;51.074;-1.790;2024-01-06T04:57:18;3.38;;;0.80;;
78406;SDS011;67692;51.074;-1.790;2024-01-06T04:59:45;3.63;;;0.63;;
78406;SDS011;67692;51.074;-1.790;2024-01-06T05:02:12;4.38;;;0.98;;
78406;SDS011;67692;51.074;-1.790;2024-01-06T05:04:39;5.85;;;1.02;;
78406;SDS011;67692;51.074;-1.790;2024-01-06T05:07:06;2.35;;;0.55;;
78406;SDS011;67692;51.074;-1.790;2024-01-06T05:09:32;4.32;;;1.05;;
78406;SDS011;67692;51.074;-1.790;2024-01-06T05:11:59;2.00;;;0.70;;
78406;SDS011;67692;51.074;-1.790;2024-01-06T05:14:27;2.75;;;0.70;;
78406;SDS011;67692;51.074;-1.790;2024-01-06T05:16:54;6.32;;;0.80;;
78406;SDS011;67692;51.074;-1.790;2024-01-06T05:19:20;5.05;;;0.52;;
78406;SDS011;67692;51.074;-1.790;2024-01-06T05:21:47;4.15;;;0.80;;
78406;SDS011;67692;51.074;-1.790;2024-01-06T05:24:14;2.80;;;0.70;;
78406;SDS011;67692;51.074;-1.790;2024-01-06T05:26:41;3.42;;;0.55;;
78406;SDS011;67692;51.074;-1.790;2024-01-06T05:29:07;4.75;;;0.57;;
78406;SDS011;67692;51.074;-1.790;2024-01-06T05:31:35;1.70;;;0.50;;
78406;SDS011;67692;51.074;-1.790;2024-01-06T05:34:02;3.70;;;0.50;;
78406;SDS011;67692;51.074;-1.790;2024-01-06T05:36:29;2.95;;;0.50;;
78406;SDS011;67692;51.074;-1.790;2024-01-06T05:38:56;2.08;;;0.73;;
78406;SDS011;67692;51.074;-1.790;2024-01-06T05:41:24;1.52;;;0.43;;
78406;SDS011;67692;51.074;-1.790;2024-01-06T05:43:50;4.82;;;0.70;;
78406;SDS011;67692;51.074;-1.790;2024-01-06T05:46:20;4.00;;;0.80;;
78406;SDS011;67692;51.074;-1.790;2024-01-06T05:48:49;4.75;;;0.80;;
78406;SDS011;67692;51.074;-1.790;2024-01-06T05:51:16;1.77;;;0.47;;
78406;SDS011;67692;51.074;-1.790;2024-01-06T05:53:42;3.30;;;0.85;;
78406;SDS011;67692;51.074;-1.790;2024-01-06T05:56:09;3.22;;;0.85;;
78406;SDS011;67692;51.074;-1.790;2024-01-06T05:58:36;4.93;;;0.50;;
78406;SDS011;67692;51.074;-1.790;2024-01-06T06:01:03;6.65;;;1.05;;
78406;SDS011;67692;51.074;-1.790;2024-01-06T06:03:30;6.55;;;0.75;;
78406;SDS011;67692;51.074;-1.790;2024-01-06T06:05:58;3.47;;;0.60;;
78406;SDS011;67692;51.074;-1.790;2024-01-06T06:08:25;7.28;;;0.93;;
78406;SDS011;67692;51.074;-1.790;2024-01-06T06:10:51;4.82;;;0.63;;
78406;SDS011;67692;51.074;-1.790;2024-01-06T06:13:26;4.57;;;1.02;;
78406;SDS011;67692;51.074;-1.790;2024-01-06T06:15:53;6.00;;;0.32;;
78406;SDS011;67692;51.074;-1.790;2024-01-06T06:18:20;6.15;;;0.73;;
78406;SDS011;67692;51.074;-1.790;2024-01-06T06:20:46;4.68;;;0.98;;
78406;SDS011;67692;51.074;-1.790;2024-01-06T06:23:14;4.22;;;0.75;;
78406;SDS011;67692;51.074;-1.790;2024-01-06T06:25:41;3.40;;;0.68;;
78406;SDS011;67692;51.074;-1.790;2024-01-06T06:28:08;3.47;;;0.65;;
78406;SDS011;67692;51.074;-1.790;2024-01-06T06:30:34;1.73;;;0.60;;
78406;SDS011;67692;51.074;-1.790;2024-01-06T06:33:01;2.63;;;0.70;;
78406;SDS011;67692;51.074;-1.790;2024-01-06T06:35:28;2.88;;;0.60;;
78406;SDS011;67692;51.074;-1.790;2024-01-06T06:37:54;4.47;;;0.90;;
78406;SDS011;67692;51.074;-1.790;2024-01-06T06:40:22;5.72;;;0.88;;
78406;SDS011;67692;51.074;-1.790;2024-01-06T06:42:49;3.58;;;0.70;;
78406;SDS011;67692;51.074;-1.790;2024-01-06T06:45:16;2.60;;;0.60;;
78406;SDS011;67692;51.074;-1.790;2024-01-06T06:47:45;7.43;;;0.98;;
78406;SDS011;67692;51.074;-1.790;2024-01-06T06:50:12;4.68;;;0.93;;
78406;SDS011;67692;51.074;-1.790;2024-01-06T06:52:39;7.55;;;0.98;;
78406;SDS011;67692;51.074;-1.790;2024-01-06T06:55:07;2.30;;;0.70;;
78406;SDS011;67692;51.074;-1.790;2024-01-06T06:57:35;2.83;;;0.73;;
78406;SDS011;67692;51.074;-1.790;2024-01-06T07:00:02;5.18;;;0.95;;
78406;SDS011;67692;51.074;-1.790;2024-01-06T07:02:29;5.50;;;0.60;;
78406;SDS011;67692;51.074;-1.790;2024-01-06T07:04:56;9.38;;;0.90;;
78406;SDS011;67692;51.074;-1.790;2024-01-06T07:07:22;6.07;;;0.63;;
78406;SDS011;67692;51.074;-1.790;2024-01-06T07:09:49;5.38;;;0.85;;
78406;SDS011;67692;51.074;-1.790;2024-01-06T07:12:15;2.53;;;0.65;;
78406;SDS011;67692;51.074;-1.790;2024-01-06T07:14:44;2.85;;;0.63;;
78406;SDS011;67692;51.074;-1.790;2024-01-06T07:17:10;5.40;;;0.65;;
78406;SDS011;67692;51.074;-1.790;2024-01-06T07:19:37;4.28;;;0.60;;
78406;SDS011;67692;51.074;-1.790;2024-01-06T07:22:04;10.63;;;0.85;;
78406;SDS011;67692;51.074;-1.790;2024-01-06T07:24:31;4.85;;;0.95;;
78406;SDS011;67692;51.074;-1.790;2024-01-06T07:26:57;4.07;;;0.55;;
78406;SDS011;67692;51.074;-1.790;2024-01-06T07:29:24;3.00;;;0.65;;
78406;SDS011;67692;51.074;-1.790;2024-01-06T07:31:52;7.78;;;0.85;;
78406;SDS011;67692;51.074;-1.790;2024-01-06T07:34:19;3.67;;;0.70;;
78406;SDS011;67692;51.074;-1.790;2024-01-06T07:36:45;5.00;;;0.90;;
78406;SDS011;67692;51.074;-1.790;2024-01-06T07:39:12;6.28;;;0.93;;
78406;SDS011;67692;51.074;-1.790;2024-01-06T07:41:39;4.10;;;0.75;;
78406;SDS011;67692;51.074;-1.790;2024-01-06T07:44:05;10.55;;;0.93;;
78406;SDS011;67692;51.074;-1.790;2024-01-06T07:46:32;4.10;;;1.50;;
78406;SDS011;67692;51.074;-1.790;2024-01-06T07:49:01;1.85;;;0.60;;
78406;SDS011;67692;51.074;-1.790;2024-01-06T07:51:28;8.05;;;0.93;;
78406;SDS011;67692;51.074;-1.790;2024-01-06T07:53:54;4.93;;;0.95;;
78406;SDS011;67692;51.074;-1.790;2024-01-06T07:56:21;9.05;;;1.00;;
78406;SDS011;67692;51.074;-1.790;2024-01-06T07:58:48;2.88;;;1.17;;
78406;SDS011;67692;51.074;-1.790;2024-01-06T08:01:14;6.88;;;1.67;;
78406;SDS011;67692;51.074;-1.790;2024-01-06T08:03:41;10.55;;;1.50;;
78406;SDS011;67692;51.074;-1.790;2024-01-06T08:06:10;5.43;;;1.13;;
78406;SDS011;67692;51.074;-1.790;2024-01-06T08:08:37;7.82;;;1.20;;
78406;SDS011;67692;51.074;-1.790;2024-01-06T08:11:03;6.57;;;1.10;;
78406;SDS011;67692;51.074;-1.790;2024-01-06T08:13:30;9.73;;;1.20;;
78406;SDS011;67692;51.074;-1.790;2024-01-06T08:15:57;6.57;;;1.10;;
78406;SDS011;67692;51.074;-1.790;2024-01-06T08:18:24;7.20;;;1.20;;
78406;SDS011;67692;51.074;-1.790;2024-01-06T08:20:51;6.53;;;0.93;;
78406;SDS011;67692;51.074;-1.790;2024-01-06T08:23:19;4.30;;;1.02;;
78406;SDS011;67692;51.074;-1.790;2024-01-06T08:25:45;3.72;;;1.05;;
78406;SDS011;67692;51.074;-1.790;2024-01-06T08:28:13;3.58;;;0.82;;
78406;SDS011;67692;51.074;-1.790;2024-01-06T08:30:41;4.00;;;1.13;;
78406;SDS011;67692;51.074;-1.790;2024-01-06T08:33:07;6.07;;;1.05;;
78406;SDS011;67692;51.074;-1.790;2024-01-06T08:35:35;5.03;;;1.55;;
78406;SDS011;67692;51.074;-1.790;2024-01-06T08:38:05;4.20;;;1.30;;
78406;SDS011;67692;51.074;-1.790;2024-01-06T08:40:33;5.43;;;1.98;;
78406;SDS011;67692;51.074;-1.790;2024-01-06T08:43:00;2.63;;;0.63;;
78406;SDS011;67692;51.074;-1.790;2024-01-06T08:45:27;3.13;;;1.10;;
78406;SDS011;67692;51.074;-1.790;2024-01-06T08:47:54;2.85;;;0.77;;
78406;SDS011;67692;51.074;-1.790;2024-01-06T08:50:21;3.05;;;1.17;;
78406;SDS011;67692;51.074;-1.790;2024-01-06T08:52:47;3.28;;;0.95;;
78406;SDS011;67692;51.074;-1.790;2024-01-06T08:55:14;7.70;;;0.95;;
78406;SDS011;67692;51.074;-1.790;2024-01-06T08:57:42;5.05;;;1.20;;
78406;SDS011;67692;51.074;-1.790;2024-01-06T09:00:09;14.68;;;3.80;;
78406;SDS011;67692;51.074;-1.790;2024-01-06T09:02:36;15.93;;;5.43;;
78406;SDS011;67692;51.074;-1.790;2024-01-06T09:05:03;13.18;;;3.40;;
78406;SDS011;67692;51.074;-1.790;2024-01-06T09:07:31;6.82;;;2.38;;
78406;SDS011;67692;51.074;-1.790;2024-01-06T09:09:57;8.15;;;1.10;;
78406;SDS011;67692;51.074;-1.790;2024-01-06T09:12:24;9.05;;;2.42;;
78406;SDS011;67692;51.074;-1.790;2024-01-06T09:14:52;4.72;;;1.25;;
78406;SDS011;67692;51.074;-1.790;2024-01-06T09:17:19;7.53;;;1.38;;
78406;SDS011;67692;51.074;-1.790;2024-01-06T09:19:47;8.20;;;1.25;;
78406;SDS011;67692;51.074;-1.790;2024-01-06T09:22:14;7.72;;;1.88;;
78406;SDS011;67692;51.074;-1.790;2024-01-06T09:24:40;6.55;;;1.45;;
78406;SDS011;67692;51.074;-1.790;2024-01-06T09:27:07;5.95;;;1.52;;
78406;SDS011;67692;51.074;-1.790;2024-01-06T09:29:34;6.13;;;1.73;;
78406;SDS011;67692;51.074;-1.790;2024-01-06T09:32:02;4.70;;;1.52;;
78406;SDS011;67692;51.074;-1.790;2024-01-06T09:34:29;8.90;;;1.45;;
78406;SDS011;67692;51.074;-1.790;2024-01-06T09:36:56;7.47;;;2.10;;
78406;SDS011;67692;51.074;-1.790;2024-01-06T09:39:23;5.55;;;1.25;;
78406;SDS011;67692;51.074;-1.790;2024-01-06T09:41:49;8.27;;;1.50;;
78406;SDS011;67692;51.074;-1.790;2024-01-06T09:44:16;7.72;;;1.20;;
78406;SDS011;67692;51.074;-1.790;2024-01-06T09:46:43;3.78;;;1.10;;
78406;SDS011;67692;51.074;-1.790;2024-01-06T09:49:12;8.30;;;1.10;;
78406;SDS011;67692;51.074;-1.790;2024-01-06T09:51:40;5.32;;;1.70;;
78406;SDS011;67692;51.074;-1.790;2024-01-06T09:54:08;3.90;;;0.98;;
78406;SDS011;67692;51.074;-1.790;2024-01-06T09:56:35;5.43;;;0.85;;
78406;SDS011;67692;51.074;-1.790;2024-01-06T09:59:03;10.88;;;1.27;;
78406;SDS011;67692;51.074;-1.790;2024-01-06T10:01:30;5.30;;;0.88;;
78406;SDS011;67692;51.074;-1.790;2024-01-06T10:03:56;8.07;;;1.23;;
78406;SDS011;67692;51.074;-1.790;2024-01-06T10:06:24;5.13;;;1.63;;
78406;SDS011;67692;51.074;-1.790;2024-01-06T10:08:52;2.30;;;1.10;;
78406;SDS011;67692;51.074;-1.790;2024-01-06T10:11:22;6.88;;;1.58;;
78406;SDS011;67692;51.074;-1.790;2024-01-06T10:13:49;5.72;;;1.25;;
78406;SDS011;67692;51.074;-1.790;2024-01-06T10:16:16;9.90;;;1.20;;
78406;SDS011;67692;51.074;-1.790;2024-01-06T10:18:43;6.47;;;1.63;;
78406;SDS011;67692;51.074;-1.790;2024-01-06T10:21:10;5.72;;;1.58;;
78406;SDS011;67692;51.074;-1.790;2024-01-06T10:23:38;6.35;;;1.30;;
78406;SDS011;67692;51.074;-1.790;2024-01-06T10:26:08;6.63;;;0.80;;
78406;SDS011;67692;51.074;-1.790;2024-01-06T10:28:39;4.50;;;0.90;;
78406;SDS011;67692;51.074;-1.790;2024-01-06T10:31:07;4.90;;;1.10;;
78406;SDS011;67692;51.074;-1.790;2024-01-06T10:33:34;4.38;;;0.80;;
78406;SDS011;67692;51.074;-1.790;2024-01-06T10:36:02;8.23;;;1.08;;
78406;SDS011;67692;51.074;-1.790;2024-01-06T10:38:30;10.93;;;1.20;;
78406;SDS011;67692;51.074;-1.790;2024-01-06T10:40:58;6.00;;;1.20;;
78406;SDS011;67692;51.074;-1.790;2024-01-06T10:43:27;4.65;;;1.05;;
78406;SDS011;67692;51.074;-1.790;2024-01-06T10:45:55;9.05;;;1.80;;
78406;SDS011;67692;51.074;-1.790;2024-01-06T10:48:24;7.88;;;2.78;;
78406;SDS011;67692;51.074;-1.790;2024-01-06T10:50:51;8.02;;;1.38;;
78406;SDS011;67692;51.074;-1.790;2024-01-06T10:53:18;8.73;;;2.67;;
78406;SDS011;67692;51.074;-1.790;2024-01-06T10:55:48;9.15;;;4.28;;
78406;SDS011;67692;51.074;-1.790;2024-01-06T10:58:17;5.10;;;1.63;;
78406;SDS011;67692;51.074;-1.790;2024-01-06T11:00:44;6.75;;;1.60;;
78406;SDS011;67692;51.074;-1.790;2024-01-06T11:03:11;8.10;;;1.33;;
78406;SDS011;67692;51.074;-1.790;2024-01-06T11:05:40;4.38;;;1.35;;
78406;SDS011;67692;51.074;-1.790;2024-01-06T11:08:07;2.85;;;1.05;;
78406;SDS011;67692;51.074;-1.790;2024-01-06T11:10:36;4.32;;;1.23;;
78406;SDS011;67692;51.074;-1.790;2024-01-06T11:13:10;6.43;;;1.30;;
78406;SDS011;67692;51.074;-1.790;2024-01-06T11:15:42;3.42;;;1.38;;
78406;SDS011;67692;51.074;-1.790;2024-01-06T11:21:14;4.75;;;1.13;;
78406;SDS011;67692;51.074;-1.790;2024-01-06T11:23:44;6.32;;;1.20;;
78406;SDS011;67692;51.074;-1.790;2024-01-06T11:26:11;4.10;;;1.00;;
78406;SDS011;67692;51.074;-1.790;2024-01-06T11:28:43;3.75;;;1.15;;
78406;SDS011;67692;51.074;-1.790;2024-01-06T11:31:13;7.07;;;1.20;;
78406;SDS011;67692;51.074;-1.790;2024-01-06T11:33:43;4.80;;;1.30;;
78406;SDS011;67692;51.074;-1.790;2024-01-06T11:36:12;2.38;;;1.00;;
78406;SDS011;67692;51.074;-1.790;2024-01-06T11:38:40;4.88;;;1.15;;
78406;SDS011;67692;51.074;-1.790;2024-01-06T11:41:13;8.02;;;0.80;;
78406;SDS011;67692;51.074;-1.790;2024-01-06T11:44:18;10.13;;;1.35;;
78406;SDS011;67692;51.074;-1.790;2024-01-06T11:46:46;3.20;;;1.05;;
78406;SDS011;67692;51.074;-1.790;2024-01-06T11:49:14;4.97;;;1.52;;
78406;SDS011;67692;51.074;-1.790;2024-01-06T11:51:41;6.32;;;1.85;;
78406;SDS011;67692;51.074;-1.790;2024-01-06T11:54:08;3.40;;;1.13;;
78406;SDS011;67692;51.074;-1.790;2024-01-06T11:56:37;3.78;;;1.00;;
78406;SDS011;67692;51.074;-1.790;2024-01-06T11:59:04;3.95;;;1.13;;
78406;SDS011;67692;51.074;-1.790;2024-01-06T12:01:35;6.43;;;1.27;;
78406;SDS011;67692;51.074;-1.790;2024-01-06T12:04:04;4.43;;;1.10;;
78406;SDS011;67692;51.074;-1.790;2024-01-06T12:06:31;6.95;;;1.38;;
78406;SDS011;67692;51.074;-1.790;2024-01-06T12:09:03;8.95;;;1.48;;
78406;SDS011;67692;51.074;-1.790;2024-01-06T12:11:30;2.28;;;0.80;;
78406;SDS011;67692;51.074;-1.790;2024-01-06T12:13:57;9.38;;;1.33;;
78406;SDS011;67692;51.074;-1.790;2024-01-06T12:16:23;4.45;;;0.98;;
78406;SDS011;67692;51.074;-1.790;2024-01-06T12:18:52;5.05;;;1.30;;
78406;SDS011;67692;51.074;-1.790;2024-01-06T12:21:21;8.85;;;1.30;;
78406;SDS011;67692;51.074;-1.790;2024-01-06T12:23:48;3.58;;;0.98;;
78406;SDS011;67692;51.074;-1.790;2024-01-06T12:26:16;4.57;;;0.90;;
78406;SDS011;67692;51.074;-1.790;2024-01-06T12:28:44;7.15;;;1.27;;
78406;SDS011;67692;51.074;-1.790;2024-01-06T12:31:10;5.97;;;1.20;;
78406;SDS011;67692;51.074;-1.790;2024-01-06T12:33:38;5.10;;;1.25;;
78406;SDS011;67692;51.074;-1.790;2024-01-06T12:36:06;3.60;;;1.20;;
78406;SDS011;67692;51.074;-1.790;2024-01-06T12:38:35;3.67;;;0.95;;
78406;SDS011;67692;51.074;-1.790;2024-01-06T12:41:02;4.97;;;1.17;;
78406;SDS011;67692;51.074;-1.790;2024-01-06T12:43:29;3.05;;;0.98;;
78406;SDS011;67692;51.074;-1.790;2024-01-06T12:45:56;5.72;;;1.48;;
78406;SDS011;67692;51.074;-1.790;2024-01-06T12:48:23;7.00;;;1.55;;
78406;SDS011;67692;51.074;-1.790;2024-01-06T12:50:50;9.02;;;1.50;;
78406;SDS011;67692;51.074;-1.790;2024-01-06T12:53:17;3.50;;;1.23;;
78406;SDS011;67692;51.074;-1.790;2024-01-06T12:55:45;3.08;;;1.13;;
78406;SDS011;67692;51.074;-1.790;2024-01-06T12:58:12;7.65;;;1.98;;
78406;SDS011;67692;51.074;-1.790;2024-01-06T13:00:39;6.32;;;1.80;;
78406;SDS011;67692;51.074;-1.790;2024-01-06T13:03:06;9.20;;;2.33;;
78406;SDS011;67692;51.074;-1.790;2024-01-06T13:05:33;5.32;;;1.55;;
78406;SDS011;67692;51.074;-1.790;2024-01-06T13:08:00;7.00;;;1.33;;
78406;SDS011;67692;51.074;-1.790;2024-01-06T13:10:28;8.10;;;1.75;;
78406;SDS011;67692;51.074;-1.790;2024-01-06T13:12:56;5.90;;;1.20;;
78406;SDS011;67692;51.074;-1.790;2024-01-06T13:15:23;4.18;;;1.15;;
78406;SDS011;67692;51.074;-1.790;2024-01-06T13:17:49;2.63;;;1.10;;
78406;SDS011;67692;51.074;-1.790;2024-01-06T13:20:16;9.75;;;1.42;;
78406;SDS011;67692;51.074;-1.790;2024-01-06T13:22:43;8.57;;;1.35;;
78406;SDS011;67692;51.074;-1.790;2024-01-06T13:25:09;6.65;;;1.42;;
78406;SDS011;67692;51.074;-1.790;2024-01-06T13:27:36;2.42;;;1.02;;
78406;SDS011;67692;51.074;-1.790;2024-01-06T13:30:05;7.20;;;1.35;;
78406;SDS011;67692;51.074;-1.790;2024-01-06T13:32:32;3.72;;;1.25;;
78406;SDS011;67692;51.074;-1.790;2024-01-06T13:34:59;2.67;;;1.10;;
78406;SDS011;67692;51.074;-1.790;2024-01-06T13:37:29;6.78;;;1.38;;
78406;SDS011;67692;51.074;-1.790;2024-01-06T13:39:57;5.32;;;1.40;;
78406;SDS011;67692;51.074;-1.790;2024-01-06T13:42:23;4.32;;;1.38;;
78406;SDS011;67692;51.074;-1.790;2024-01-06T13:44:50;4.47;;;1.13;;
78406;SDS011;67692;51.074;-1.790;2024-01-06T13:47:18;5.30;;;1.85;;
78406;SDS011;67692;51.074;-1.790;2024-01-06T13:49:45;6.72;;;1.35;;
78406;SDS011;67692;51.074;-1.790;2024-01-06T13:52:12;5.68;;;1.70;;
78406;SDS011;67692;51.074;-1.790;2024-01-06T13:54:38;7.82;;;1.55;;
78406;SDS011;67692;51.074;-1.790;2024-01-06T13:57:05;5.97;;;1.60;;
78406;SDS011;67692;51.074;-1.790;2024-01-06T13:59:31;5.90;;;1.70;;
78406;SDS011;67692;51.074;-1.790;2024-01-06T14:01:57;3.72;;;1.40;;
78406;SDS011;67692;51.074;-1.790;2024-01-06T14:04:25;5.63;;;1.90;;
78406;SDS011;67692;51.074;-1.790;2024-01-06T14:06:52;9.60;;;2.40;;
78406;SDS011;67692;51.074;-1.790;2024-01-06T14:09:21;5.97;;;1.60;;
78406;SDS011;67692;51.074;-1.790;2024-01-06T14:11:48;4.30;;;1.63;;
78406;SDS011;67692;51.074;-1.790;2024-01-06T14:14:14;6.32;;;1.73;;
78406;SDS011;67692;51.074;-1.790;2024-01-06T14:16:42;5.55;;;1.60;;
78406;SDS011;67692;51.074;-1.790;2024-01-06T14:19:09;4.63;;;1.50;;
78406;SDS011;67692;51.074;-1.790;2024-01-06T14:21:37;3.95;;;1.52;;
78406;SDS011;67692;51.074;-1.790;2024-01-06T14:24:04;4.78;;;1.95;;
78406;SDS011;67692;51.074;-1.790;2024-01-06T14:26:32;4.03;;;1.27;;
78406;SDS011;67692;51.074;-1.790;2024-01-06T14:28:58;5.70;;;1.65;;
78406;SDS011;67692;51.074;-1.790;2024-01-06T14:31:25;5.63;;;1.40;;
78406;SDS011;67692;51.074;-1.790;2024-01-06T14:33:52;7.90;;;2.50;;
78406;SDS011;67692;51.074;-1.790;2024-01-06T14:36:20;5.18;;;1.40;;